sensor_id;sensor_type;location;lat;lon;timestamp;P1;durP1;ratioP1;P2;durP2;ratioP2
59054;SDS011;44845;51.444;7.460;2023-04-28T00:00:15;7.82;;;5.45;;
59054;SDS011;44845;51.444;7.460;2023-04-28T00:02:40;7.85;;;5.50;;
59054;SDS011;44845;51.444;7.460;2023-04-28T00:05:06;6.88;;;5.55;;
59054;SDS011;44845;51.444;7.460;2023-04-28T00:07:31;10.13;;;5.97;;
59054;SDS011;44845;51.444;7.460;2023-04-28T00:09:56;10.05;;;5.35;;
59054;SDS011;44845;51.444;7.460;2023-04-28T00:12:22;7.00;;;5.28;;
59054;SDS011;44845;51.444;7.460;2023-04-28T00:14:47;7.38;;;5.43;;
59054;SDS011;44845;51.444;7.460;2023-04-28T00:17:12;8.88;;;5.43;;
59054;SDS011;44845;51.444;7.460;2023-04-28T00:19:38;8.30;;;5.30;;
59054;SDS011;44845;51.444;7.460;2023-04-28T00:22:04;7.90;;;5.75;;
59054;SDS011;44845;51.444;7.460;2023-04-28T00:24:30;8.75;;;5.75;;
59054;SDS011;44845;51.444;7.460;2023-04-28T00:26:57;10.93;;;5.90;;
59054;SDS011;44845;51.444;7.460;2023-04-28T00:29:23;11.30;;;5.70;;
59054;SDS011;44845;51.444;7.460;2023-04-28T00:31:48;10.30;;;6.07;;
59054;SDS011;44845;51.444;7.460;2023-04-28T00:34:14;8.73;;;6.10;;
59054;SDS011;44845;51.444;7.460;2023-04-28T00:36:39;9.88;;;5.85;;
59054;SDS011;44845;51.444;7.460;2023-04-28T00:39:05;8.82;;;5.90;;
59054;SDS011;44845;51.444;7.460;2023-04-28T00:41:30;9.80;;;5.80;;
59054;SDS011;44845;51.444;7.460;2023-04-28T00:43:56;8.57;;;5.20;;
59054;SDS011;44845;51.444;7.460;2023-04-28T00:46:26;10.52;;;5.97;;
59054;SDS011;44845;51.444;7.460;2023-04-28T00:48:54;10.77;;;5.60;;
59054;SDS011;44845;51.444;7.460;2023-04-28T00:51:22;7.50;;;5.72;;
59054;SDS011;44845;51.444;7.460;2023-04-28T00:53:49;8.95;;;5.85;;
59054;SDS011;44845;51.444;7.460;2023-04-28T00:56:14;10.32;;;5.63;;
59054;SDS011;44845;51.444;7.460;2023-04-28T00:58:40;8.77;;;4.90;;
59054;SDS011;44845;51.444;7.460;2023-04-28T01:01:07;9.43;;;5.20;;
59054;SDS011;44845;51.444;7.460;2023-04-28T01:03:34;11.43;;;5.15;;
59054;SDS011;44845;51.444;7.460;2023-04-28T01:06:01;10.65;;;6.13;;
59054;SDS011;44845;51.444;7.460;2023-04-28T01:08:32;10.93;;;5.63;;
59054;SDS011;44845;51.444;7.460;2023-04-28T01:10:58;9.20;;;6.25;;
59054;SDS011;44845;51.444;7.460;2023-04-28T01:13:24;9.73;;;5.80;;
59054;SDS011;44845;51.444;7.460;2023-04-28T01:15:50;10.02;;;5.50;;
59054;SDS011;44845;51.444;7.460;2023-04-28T01:18:15;10.00;;;6.15;;
59054;SDS011;44845;51.444;7.460;2023-04-28T01:20:41;10.13;;;6.40;;
59054;SDS011;44845;51.444;7.460;2023-04-28T01:23:10;9.13;;;5.70;;
59054;SDS011;44845;51.444;7.460;2023-04-28T01:25:40;7.53;;;5.75;;
59054;SDS011;44845;51.444;7.460;2023-04-28T01:28:06;8.82;;;5.90;;
59054;SDS011;44845;51.444;7.460;2023-04-28T01:30:33;10.05;;;6.28;;
59054;SDS011;44845;51.444;7.460;2023-04-28T01:32:59;11.30;;;6.82;;
59054;SDS011;44845;51.444;7.460;2023-04-28T01:35:25;12.82;;;6.53;;
59054;SDS011;44845;51.444;7.460;2023-04-28T01:37:50;13.57;;;6.88;;
59054;SDS011;44845;51.444;7.460;2023-04-28T01:40:15;9.57;;;6.20;;
59054;SDS011;44845;51.444;7.460;2023-04-28T01:42:41;10.27;;;6.15;;
59054;SDS011;44845;51.444;7.460;2023-04-28T01:45:06;10.07;;;6.28;;
59054;SDS011;44845;51.444;7.460;2023-04-28T01:47:32;8.40;;;6.35;;
59054;SDS011;44845;51.444;7.460;2023-04-28T01:49:57;11.95;;;6.72;;
59054;SDS011;44845;51.444;7.460;2023-04-28T01:52:23;14.30;;;6.80;;
59054;SDS011;44845;51.444;7.460;2023-04-28T01:54:51;10.13;;;6.85;;
59054;SDS011;44845;51.444;7.460;2023-04-28T01:57:17;12.20;;;6.95;;
59054;SDS011;44845;51.444;7.460;2023-04-28T01:59:42;10.77;;;6.95;;
59054;SDS011;44845;51.444;7.460;2023-04-28T02:02:07;12.45;;;7.82;;
59054;SDS011;44845;51.444;7.460;2023-04-28T02:04:32;10.30;;;7.25;;
59054;SDS011;44845;51.444;7.460;2023-04-28T02:06:58;14.18;;;7.15;;
59054;SDS011;44845;51.444;7.460;2023-04-28T02:09:23;15.30;;;7.65;;
59054;SDS011;44845;51.444;7.460;2023-04-28T02:11:49;13.35;;;7.13;;
59054;SDS011;44845;51.444;7.460;2023-04-28T02:14:14;11.85;;;6.97;;
59054;SDS011;44845;51.444;7.460;2023-04-28T02:16:40;12.85;;;7.07;;
59054;SDS011;44845;51.444;7.460;2023-04-28T02:19:05;12.15;;;7.10;;
59054;SDS011;44845;51.444;7.460;2023-04-28T02:21:31;9.50;;;6.55;;
59054;SDS011;44845;51.444;7.460;2023-04-28T02:23:57;14.43;;;6.78;;
59054;SDS011;44845;51.444;7.460;2023-04-28T02:26:22;10.52;;;7.07;;
59054;SDS011;44845;51.444;7.460;2023-04-28T02:28:48;12.10;;;7.55;;
59054;SDS011;44845;51.444;7.460;2023-04-28T02:31:13;9.68;;;6.80;;
59054;SDS011;44845;51.444;7.460;2023-04-28T02:33:39;10.15;;;6.93;;
59054;SDS011;44845;51.444;7.460;2023-04-28T02:36:06;10.40;;;7.28;;
59054;SDS011;44845;51.444;7.460;2023-04-28T02:38:32;13.20;;;8.65;;
59054;SDS011;44845;51.444;7.460;2023-04-28T02:40:58;16.35;;;8.77;;
59054;SDS011;44845;51.444;7.460;2023-04-28T02:43:30;14.73;;;9.35;;
59054;SDS011;44845;51.444;7.460;2023-04-28T02:45:56;18.83;;;10.40;;
59054;SDS011;44845;51.444;7.460;2023-04-28T02:48:23;19.25;;;10.05;;
59054;SDS011;44845;51.444;7.460;2023-04-28T02:50:49;15.80;;;9.52;;
59054;SDS011;44845;51.444;7.460;2023-04-28T02:53:15;14.85;;;9.23;;
59054;SDS011;44845;51.444;7.460;2023-04-28T02:55:40;16.17;;;9.60;;
59054;SDS011;44845;51.444;7.460;2023-04-28T02:58:06;14.93;;;9.35;;
59054;SDS011;44845;51.444;7.460;2023-04-28T03:00:31;17.23;;;9.90;;
59054;SDS011;44845;51.444;7.460;2023-04-28T03:02:56;16.58;;;10.18;;
59054;SDS011;44845;51.444;7.460;2023-04-28T03:05:22;17.42;;;10.90;;
59054;SDS011;44845;51.444;7.460;2023-04-28T03:07:47;18.45;;;9.90;;
59054;SDS011;44845;51.444;7.460;2023-04-28T03:10:13;15.27;;;10.10;;
59054;SDS011;44845;51.444;7.460;2023-04-28T03:12:38;16.88;;;9.70;;
59054;SDS011;44845;51.444;7.460;2023-04-28T03:15:04;15.90;;;9.65;;
59054;SDS011;44845;51.444;7.460;2023-04-28T03:17:32;16.60;;;9.43;;
59054;SDS011;44845;51.444;7.460;2023-04-28T03:19:58;14.68;;;8.80;;
59054;SDS011;44845;51.444;7.460;2023-04-28T03:22:23;13.43;;;8.60;;
59054;SDS011;44845;51.444;7.460;2023-04-28T03:24:48;15.45;;;8.50;;
59054;SDS011;44845;51.444;7.460;2023-04-28T03:27:14;11.63;;;7.68;;
59054;SDS011;44845;51.444;7.460;2023-04-28T03:29:39;12.32;;;8.40;;
59054;SDS011;44845;51.444;7.460;2023-04-28T03:32:05;14.13;;;8.70;;
59054;SDS011;44845;51.444;7.460;2023-04-28T03:34:30;15.80;;;8.80;;
59054;SDS011;44845;51.444;7.460;2023-04-28T03:36:55;13.48;;;8.57;;
59054;SDS011;44845;51.444;7.460;2023-04-28T03:39:21;13.27;;;8.00;;
59054;SDS011;44845;51.444;7.460;2023-04-28T03:41:46;14.85;;;8.05;;
59054;SDS011;44845;51.444;7.460;2023-04-28T03:44:12;12.90;;;8.45;;
59054;SDS011;44845;51.444;7.460;2023-04-28T03:46:37;13.50;;;7.90;;
59054;SDS011;44845;51.444;7.460;2023-04-28T03:49:04;13.88;;;8.13;;
59054;SDS011;44845;51.444;7.460;2023-04-28T03:51:30;12.35;;;7.90;;
59054;SDS011;44845;51.444;7.460;2023-04-28T03:53:56;12.10;;;7.82;;
59054;SDS011;44845;51.444;7.460;2023-04-28T03:56:22;11.73;;;7.30;;
59054;SDS011;44845;51.444;7.460;2023-04-28T03:58:47;12.90;;;7.55;;
59054;SDS011;44845;51.444;7.460;2023-04-28T04:01:13;14.05;;;7.80;;
59054;SDS011;44845;51.444;7.460;2023-04-28T04:03:38;12.75;;;8.38;;
59054;SDS011;44845;51.444;7.460;2023-04-28T04:06:03;14.52;;;8.40;;
59054;SDS011;44845;51.444;7.460;2023-04-28T04:08:29;17.73;;;8.63;;
59054;SDS011;44845;51.444;7.460;2023-04-28T04:10:56;16.10;;;9.00;;
59054;SDS011;44845;51.444;7.460;2023-04-28T04:13:21;13.90;;;8.40;;
59054;SDS011;44845;51.444;7.460;2023-04-28T04:15:46;15.88;;;8.70;;
59054;SDS011;44845;51.444;7.460;2023-04-28T04:18:12;16.33;;;8.52;;
59054;SDS011;44845;51.444;7.460;2023-04-28T04:20:38;12.13;;;7.40;;
59054;SDS011;44845;51.444;7.460;2023-04-28T04:23:04;11.18;;;7.63;;
59054;SDS011;44845;51.444;7.460;2023-04-28T04:25:30;11.30;;;7.55;;
59054;SDS011;44845;51.444;7.460;2023-04-28T04:27:56;12.88;;;7.25;;
59054;SDS011;44845;51.444;7.460;2023-04-28T04:30:21;11.95;;;7.60;;
59054;SDS011;44845;51.444;7.460;2023-04-28T04:32:47;13.80;;;7.53;;
59054;SDS011;44845;51.444;7.460;2023-04-28T04:35:12;9.25;;;6.32;;
59054;SDS011;44845;51.444;7.460;2023-04-28T04:37:37;9.40;;;7.45;;
59054;SDS011;44845;51.444;7.460;2023-04-28T04:40:03;7.53;;;6.22;;
59054;SDS011;44845;51.444;7.460;2023-04-28T04:42:29;13.68;;;6.95;;
59054;SDS011;44845;51.444;7.460;2023-04-28T04:44:54;10.70;;;6.93;;
59054;SDS011;44845;51.444;7.460;2023-04-28T04:47:20;11.27;;;7.55;;
59054;SDS011;44845;51.444;7.460;2023-04-28T04:49:45;16.95;;;8.77;;
59054;SDS011;44845;51.444;7.460;2023-04-28T04:52:11;13.05;;;8.45;;
59054;SDS011;44845;51.444;7.460;2023-04-28T04:54:36;15.23;;;8.30;;
59054;SDS011;44845;51.444;7.460;2023-04-28T04:57:02;15.75;;;8.52;;
59054;SDS011;44845;51.444;7.460;2023-04-28T04:59:27;12.27;;;8.57;;
59054;SDS011;44845;51.444;7.460;2023-04-28T05:01:53;10.60;;;8.07;;
59054;SDS011;44845;51.444;7.460;2023-04-28T05:04:18;12.68;;;7.65;;
59054;SDS011;44845;51.444;7.460;2023-04-28T05:06:43;15.93;;;8.40;;
59054;SDS011;44845;51.444;7.460;2023-04-28T05:09:09;15.65;;;8.00;;
59054;SDS011;44845;51.444;7.460;2023-04-28T05:11:34;11.98;;;8.07;;
59054;SDS011;44845;51.444;7.460;2023-04-28T05:13:59;9.52;;;6.85;;
59054;SDS011;44845;51.444;7.460;2023-04-28T05:16:25;10.48;;;6.70;;
59054;SDS011;44845;51.444;7.460;2023-04-28T05:18:51;9.93;;;6.90;;
59054;SDS011;44845;51.444;7.460;2023-04-28T05:21:17;9.18;;;5.95;;
59054;SDS011;44845;51.444;7.460;2023-04-28T05:23:42;7.10;;;5.88;;
59054;SDS011;44845;51.444;7.460;2023-04-28T05:26:08;8.50;;;6.15;;
59054;SDS011;44845;51.444;7.460;2023-04-28T05:28:33;9.05;;;6.45;;
59054;SDS011;44845;51.444;7.460;2023-04-28T05:30:58;9.88;;;6.10;;
59054;SDS011;44845;51.444;7.460;2023-04-28T05:33:24;8.43;;;5.90;;
59054;SDS011;44845;51.444;7.460;2023-04-28T05:35:49;11.23;;;6.38;;
59054;SDS011;44845;51.444;7.460;2023-04-28T05:38:15;9.15;;;6.97;;
59054;SDS011;44845;51.444;7.460;2023-04-28T05:40:41;9.23;;;6.78;;
59054;SDS011;44845;51.444;7.460;2023-04-28T05:43:06;11.10;;;7.03;;
59054;SDS011;44845;51.444;7.460;2023-04-28T05:45:31;8.07;;;6.40;;
59054;SDS011;44845;51.444;7.460;2023-04-28T05:47:57;7.97;;;6.10;;
59054;SDS011;44845;51.444;7.460;2023-04-28T05:50:22;8.57;;;6.35;;
59054;SDS011;44845;51.444;7.460;2023-04-28T05:52:48;14.00;;;6.38;;
59054;SDS011;44845;51.444;7.460;2023-04-28T05:55:13;9.30;;;6.00;;
59054;SDS011;44845;51.444;7.460;2023-04-28T05:57:38;6.90;;;6.18;;
59054;SDS011;44845;51.444;7.460;2023-04-28T06:00:04;14.10;;;5.88;;
59054;SDS011;44845;51.444;7.460;2023-04-28T06:02:30;8.27;;;6.13;;
59054;SDS011;44845;51.444;7.460;2023-04-28T06:04:55;10.73;;;6.78;;
59054;SDS011;44845;51.444;7.460;2023-04-28T06:07:20;9.02;;;6.18;;
59054;SDS011;44845;51.444;7.460;2023-04-28T06:09:46;11.27;;;6.80;;
59054;SDS011;44845;51.444;7.460;2023-04-28T06:12:11;12.65;;;5.47;;
59054;SDS011;44845;51.444;7.460;2023-04-28T06:14:37;10.00;;;6.55;;
59054;SDS011;44845;51.444;7.460;2023-04-28T06:17:02;13.63;;;6.90;;
59054;SDS011;44845;51.444;7.460;2023-04-28T06:19:28;11.70;;;6.55;;
59054;SDS011;44845;51.444;7.460;2023-04-28T06:21:53;7.10;;;6.00;;
59054;SDS011;44845;51.444;7.460;2023-04-28T06:24:19;8.40;;;6.70;;
59054;SDS011;44845;51.444;7.460;2023-04-28T06:26:45;14.70;;;6.32;;
59054;SDS011;44845;51.444;7.460;2023-04-28T06:29:10;10.55;;;6.53;;
59054;SDS011;44845;51.444;7.460;2023-04-28T06:31:35;10.82;;;5.90;;
59054;SDS011;44845;51.444;7.460;2023-04-28T06:34:01;8.25;;;5.68;;
59054;SDS011;44845;51.444;7.460;2023-04-28T06:36:26;7.97;;;6.25;;
59054;SDS011;44845;51.444;7.460;2023-04-28T06:38:52;11.60;;;6.03;;
59054;SDS011;44845;51.444;7.460;2023-04-28T06:41:17;8.70;;;6.00;;
59054;SDS011;44845;51.444;7.460;2023-04-28T06:43:43;9.73;;;6.00;;
59054;SDS011;44845;51.444;7.460;2023-04-28T06:46:08;8.07;;;5.22;;
59054;SDS011;44845;51.444;7.460;2023-04-28T06:48:35;7.95;;;6.20;;
59054;SDS011;44845;51.444;7.460;2023-04-28T06:51:00;9.88;;;6.13;;
59054;SDS011;44845;51.444;7.460;2023-04-28T06:53:25;11.15;;;6.28;;
59054;SDS011;44845;51.444;7.460;2023-04-28T06:55:51;11.30;;;6.63;;
59054;SDS011;44845;51.444;7.460;2023-04-28T06:58:17;10.00;;;5.85;;
59054;SDS011;44845;51.444;7.460;2023-04-28T07:00:42;12.02;;;6.28;;
59054;SDS011;44845;51.444;7.460;2023-04-28T07:03:07;9.75;;;6.13;;
59054;SDS011;44845;51.444;7.460;2023-04-28T07:05:37;9.45;;;6.68;;
59054;SDS011;44845;51.444;7.460;2023-04-28T07:08:03;8.88;;;6.60;;
59054;SDS011;44845;51.444;7.460;2023-04-28T07:10:28;8.82;;;6.70;;
59054;SDS011;44845;51.444;7.460;2023-04-28T07:12:53;8.43;;;5.82;;
59054;SDS011;44845;51.444;7.460;2023-04-28T07:15:19;9.40;;;6.88;;
59054;SDS011;44845;51.444;7.460;2023-04-28T07:17:44;11.10;;;6.88;;
59054;SDS011;44845;51.444;7.460;2023-04-28T07:20:10;8.35;;;6.43;;
59054;SDS011;44845;51.444;7.460;2023-04-28T07:22:35;11.55;;;7.00;;
59054;SDS011;44845;51.444;7.460;2023-04-28T07:25:02;10.73;;;6.28;;
59054;SDS011;44845;51.444;7.460;2023-04-28T07:27:28;10.60;;;6.20;;
59054;SDS011;44845;51.444;7.460;2023-04-28T07:29:53;9.80;;;6.40;;
59054;SDS011;44845;51.444;7.460;2023-04-28T07:32:19;13.18;;;7.07;;
59054;SDS011;44845;51.444;7.460;2023-04-28T07:34:44;9.68;;;6.47;;
59054;SDS011;44845;51.444;7.460;2023-04-28T07:37:10;10.65;;;6.72;;
59054;SDS011;44845;51.444;7.460;2023-04-28T07:39:36;10.75;;;6.63;;
59054;SDS011;44845;51.444;7.460;2023-04-28T07:42:03;10.80;;;6.78;;
59054;SDS011;44845;51.444;7.460;2023-04-28T07:44:29;9.20;;;6.47;;
59054;SDS011;44845;51.444;7.460;2023-04-28T07:46:54;11.35;;;6.63;;
59054;SDS011;44845;51.444;7.460;2023-04-28T07:49:20;10.90;;;6.00;;
59054;SDS011;44845;51.444;7.460;2023-04-28T07:51:45;8.90;;;6.18;;
59054;SDS011;44845;51.444;7.460;2023-04-28T07:54:11;11.55;;;5.97;;
59054;SDS011;44845;51.444;7.460;2023-04-28T07:56:36;6.57;;;5.43;;
59054;SDS011;44845;51.444;7.460;2023-04-28T07:59:01;9.35;;;5.50;;
59054;SDS011;44845;51.444;7.460;2023-04-28T08:01:27;14.05;;;6.22;;
59054;SDS011;44845;51.444;7.460;2023-04-28T08:03:52;6.43;;;5.50;;
59054;SDS011;44845;51.444;7.460;2023-04-28T08:06:18;9.98;;;6.63;;
59054;SDS011;44845;51.444;7.460;2023-04-28T08:08:43;8.18;;;5.68;;
59054;SDS011;44845;51.444;7.460;2023-04-28T08:11:09;6.68;;;5.85;;
59054;SDS011;44845;51.444;7.460;2023-04-28T08:13:35;11.30;;;6.18;;
59054;SDS011;44845;51.444;7.460;2023-04-28T08:16:00;11.75;;;6.38;;
59054;SDS011;44845;51.444;7.460;2023-04-28T08:18:26;7.65;;;5.35;;
59054;SDS011;44845;51.444;7.460;2023-04-28T08:20:52;9.25;;;6.05;;
59054;SDS011;44845;51.444;7.460;2023-04-28T08:23:18;10.48;;;5.38;;
59054;SDS011;44845;51.444;7.460;2023-04-28T08:25:44;8.00;;;5.38;;
59054;SDS011;44845;51.444;7.460;2023-04-28T08:28:09;6.07;;;5.25;;
59054;SDS011;44845;51.444;7.460;2023-04-28T08:30:35;8.15;;;5.53;;
59054;SDS011;44845;51.444;7.460;2023-04-28T08:33:02;8.15;;;5.80;;
59054;SDS011;44845;51.444;7.460;2023-04-28T08:35:28;9.25;;;6.05;;
59054;SDS011;44845;51.444;7.460;2023-04-28T08:37:54;8.40;;;5.53;;
59054;SDS011;44845;51.444;7.460;2023-04-28T08:40:19;9.00;;;5.10;;
59054;SDS011;44845;51.444;7.460;2023-04-28T08:42:44;8.65;;;5.15;;
59054;SDS011;44845;51.444;7.460;2023-04-28T08:45:14;7.00;;;5.25;;
59054;SDS011;44845;51.444;7.460;2023-04-28T08:47:41;7.53;;;5.18;;
59054;SDS011;44845;51.444;7.460;2023-04-28T08:50:10;7.93;;;4.72;;
59054;SDS011;44845;51.444;7.460;2023-04-28T08:52:39;8.98;;;4.82;;
59054;SDS011;44845;51.444;7.460;2023-04-28T08:55:07;9.00;;;4.90;;
59054;SDS011;44845;51.444;7.460;2023-04-28T08:57:36;6.88;;;5.30;;
59054;SDS011;44845;51.444;7.460;2023-04-28T09:00:02;7.22;;;4.80;;
59054;SDS011;44845;51.444;7.460;2023-04-28T09:02:28;8.60;;;5.80;;
59054;SDS011;44845;51.444;7.460;2023-04-28T09:04:53;6.65;;;5.07;;
59054;SDS011;44845;51.444;7.460;2023-04-28T09:07:18;7.03;;;5.18;;
59054;SDS011;44845;51.444;7.460;2023-04-28T09:09:44;8.13;;;5.03;;
59054;SDS011;44845;51.444;7.460;2023-04-28T09:12:10;7.57;;;5.13;;
59054;SDS011;44845;51.444;7.460;2023-04-28T09:14:36;9.88;;;5.03;;
59054;SDS011;44845;51.444;7.460;2023-04-28T09:17:09;9.27;;;5.18;;
59054;SDS011;44845;51.444;7.460;2023-04-28T09:19:37;8.20;;;4.50;;
59054;SDS011;44845;51.444;7.460;2023-04-28T09:22:04;11.43;;;5.13;;
59054;SDS011;44845;51.444;7.460;2023-04-28T09:24:33;6.32;;;4.80;;
59054;SDS011;44845;51.444;7.460;2023-04-28T09:27:04;11.13;;;5.18;;
59054;SDS011;44845;51.444;7.460;2023-04-28T09:29:31;8.50;;;5.55;;
59054;SDS011;44845;51.444;7.460;2023-04-28T09:37:18;10.60;;;5.43;;
59054;SDS011;44845;51.444;7.460;2023-04-28T09:39:45;10.60;;;5.80;;
59054;SDS011;44845;51.444;7.460;2023-04-28T09:44:57;10.13;;;5.90;;
59054;SDS011;44845;51.444;7.460;2023-04-28T09:47:22;8.43;;;6.10;;
59054;SDS011;44845;51.444;7.460;2023-04-28T09:49:53;7.85;;;5.47;;
59054;SDS011;44845;51.444;7.460;2023-04-28T09:52:22;10.32;;;5.85;;
59054;SDS011;44845;51.444;7.460;2023-04-28T09:54:49;11.57;;;5.60;;
59054;SDS011;44845;51.444;7.460;2023-04-28T09:57:15;8.43;;;5.38;;
59054;SDS011;44845;51.444;7.460;2023-04-28T09:59:42;7.97;;;4.97;;
59054;SDS011;44845;51.444;7.460;2023-04-28T10:02:13;9.15;;;5.72;;
59054;SDS011;44845;51.444;7.460;2023-04-28T10:04:40;11.13;;;5.65;;
59054;SDS011;44845;51.444;7.460;2023-04-28T10:07:10;8.88;;;5.22;;
59054;SDS011;44845;51.444;7.460;2023-04-28T10:09:37;9.95;;;6.10;;
59054;SDS011;44845;51.444;7.460;2023-04-28T10:12:03;8.57;;;5.13;;
59054;SDS011;44845;51.444;7.460;2023-04-28T10:14:29;9.60;;;5.60;;
59054;SDS011;44845;51.444;7.460;2023-04-28T10:16:56;9.15;;;5.13;;
59054;SDS011;44845;51.444;7.460;2023-04-28T10:19:23;11.57;;;5.90;;
59054;SDS011;44845;51.444;7.460;2023-04-28T10:21:54;7.70;;;5.30;;
59054;SDS011;44845;51.444;7.460;2023-04-28T10:24:34;7.03;;;4.80;;
59054;SDS011;44845;51.444;7.460;2023-04-28T10:27:18;8.93;;;4.90;;
59054;SDS011;44845;51.444;7.460;2023-04-28T10:29:43;6.70;;;4.72;;
59054;SDS011;44845;51.444;7.460;2023-04-28T10:34:40;8.57;;;4.85;;
59054;SDS011;44845;51.444;7.460;2023-04-28T10:37:05;8.20;;;4.82;;
59054;SDS011;44845;51.444;7.460;2023-04-28T10:39:31;11.50;;;4.40;;
59054;SDS011;44845;51.444;7.460;2023-04-28T10:41:57;7.30;;;4.78;;
59054;SDS011;44845;51.444;7.460;2023-04-28T11:00:44;5.85;;;4.03;;
59054;SDS011;44845;51.444;7.460;2023-04-28T11:06:20;6.30;;;5.28;;
59054;SDS011;44845;51.444;7.460;2023-04-28T11:08:51;7.07;;;5.13;;
59054;SDS011;44845;51.444;7.460;2023-04-28T11:11:23;6.22;;;4.18;;
59054;SDS011;44845;51.444;7.460;2023-04-28T11:13:50;7.82;;;4.90;;
59054;SDS011;44845;51.444;7.460;2023-04-28T11:16:17;5.28;;;4.70;;
59054;SDS011;44845;51.444;7.460;2023-04-28T11:18:49;4.88;;;4.07;;
59054;SDS011;44845;51.444;7.460;2023-04-28T11:21:18;4.68;;;4.10;;
59054;SDS011;44845;51.444;7.460;2023-04-28T11:23:44;5.65;;;4.32;;
59054;SDS011;44845;51.444;7.460;2023-04-28T11:26:11;5.03;;;4.05;;
59054;SDS011;44845;51.444;7.460;2023-04-28T11:28:50;4.50;;;3.45;;
59054;SDS011;44845;51.444;7.460;2023-04-28T11:31:20;4.30;;;3.47;;
59054;SDS011;44845;51.444;7.460;2023-04-28T11:33:48;7.72;;;3.30;;
59054;SDS011;44845;51.444;7.460;2023-04-28T11:36:24;4.68;;;3.10;;
59054;SDS011;44845;51.444;7.460;2023-04-28T11:38:53;4.22;;;3.53;;
59054;SDS011;44845;51.444;7.460;2023-04-28T11:41:21;4.55;;;3.42;;
59054;SDS011;44845;51.444;7.460;2023-04-28T11:43:47;5.63;;;3.92;;
59054;SDS011;44845;51.444;7.460;2023-04-28T11:46:16;5.05;;;4.28;;
59054;SDS011;44845;51.444;7.460;2023-04-28T11:48:45;4.57;;;4.18;;
59054;SDS011;44845;51.444;7.460;2023-04-28T11:51:30;6.25;;;4.50;;
59054;SDS011;44845;51.444;7.460;2023-04-28T11:53:57;5.25;;;4.70;;
59054;SDS011;44845;51.444;7.460;2023-04-28T11:56:24;5.72;;;4.22;;
59054;SDS011;44845;51.444;7.460;2023-04-28T11:59:00;8.85;;;5.07;;
59054;SDS011;44845;51.444;7.460;2023-04-28T12:01:30;7.93;;;5.38;;
59054;SDS011;44845;51.444;7.460;2023-04-28T12:03:57;6.80;;;5.25;;
59054;SDS011;44845;51.444;7.460;2023-04-28T12:06:22;6.10;;;5.50;;
59054;SDS011;44845;51.444;7.460;2023-04-28T12:08:48;5.88;;;5.00;;
59054;SDS011;44845;51.444;7.460;2023-04-28T12:11:14;6.57;;;5.03;;
59054;SDS011;44845;51.444;7.460;2023-04-28T12:13:41;5.47;;;4.93;;
59054;SDS011;44845;51.444;7.460;2023-04-28T12:16:07;5.75;;;4.90;;
59054;SDS011;44845;51.444;7.460;2023-04-28T12:18:33;4.82;;;4.38;;
59054;SDS011;44845;51.444;7.460;2023-04-28T12:21:00;5.10;;;4.60;;
59054;SDS011;44845;51.444;7.460;2023-04-28T12:23:29;6.88;;;4.93;;
59054;SDS011;44845;51.444;7.460;2023-04-28T12:25:56;5.65;;;4.78;;
59054;SDS011;44845;51.444;7.460;2023-04-28T12:28:22;11.88;;;4.65;;
59054;SDS011;44845;51.444;7.460;2023-04-28T12:30:47;5.93;;;5.30;;
59054;SDS011;44845;51.444;7.460;2023-04-28T12:33:22;5.75;;;5.25;;
59054;SDS011;44845;51.444;7.460;2023-04-28T12:35:49;6.30;;;5.70;;
59054;SDS011;44845;51.444;7.460;2023-04-28T12:38:14;10.57;;;6.10;;
59054;SDS011;44845;51.444;7.460;2023-04-28T12:40:40;6.18;;;5.57;;
59054;SDS011;44845;51.444;7.460;2023-04-28T12:43:06;5.80;;;5.13;;
59054;SDS011;44845;51.444;7.460;2023-04-28T12:45:31;6.13;;;5.53;;
59054;SDS011;44845;51.444;7.460;2023-04-28T12:47:57;6.10;;;5.60;;
59054;SDS011;44845;51.444;7.460;2023-04-28T12:50:25;6.32;;;5.68;;
59054;SDS011;44845;51.444;7.460;2023-04-28T12:52:53;6.10;;;5.47;;
59054;SDS011;44845;51.444;7.460;2023-04-28T12:55:20;6.75;;;5.70;;
59054;SDS011;44845;51.444;7.460;2023-04-28T12:57:45;6.82;;;5.13;;
59054;SDS011;44845;51.444;7.460;2023-04-28T13:00:11;5.88;;;5.00;;
59054;SDS011;44845;51.444;7.460;2023-04-28T13:02:38;7.07;;;5.18;;
59054;SDS011;44845;51.444;7.460;2023-04-28T13:05:04;6.00;;;5.35;;
59054;SDS011;44845;51.444;7.460;2023-04-28T13:07:30;5.70;;;5.03;;
59054;SDS011;44845;51.444;7.460;2023-04-28T13:09:55;5.32;;;4.82;;
59054;SDS011;44845;51.444;7.460;2023-04-28T13:12:22;5.70;;;5.15;;
59054;SDS011;44845;51.444;7.460;2023-04-28T13:14:48;5.35;;;4.85;;
59054;SDS011;44845;51.444;7.460;2023-04-28T13:17:13;7.43;;;6.30;;
59054;SDS011;44845;51.444;7.460;2023-04-28T13:19:39;6.72;;;5.82;;
59054;SDS011;44845;51.444;7.460;2023-04-28T13:22:04;6.78;;;6.13;;
59054;SDS011;44845;51.444;7.460;2023-04-28T13:24:33;8.30;;;7.18;;
59054;SDS011;44845;51.444;7.460;2023-04-28T13:26:58;10.30;;;8.77;;
59054;SDS011;44845;51.444;7.460;2023-04-28T13:29:23;10.82;;;9.15;;
59054;SDS011;44845;51.444;7.460;2023-04-28T13:31:49;10.85;;;9.20;;
59054;SDS011;44845;51.444;7.460;2023-04-28T13:34:14;9.82;;;8.68;;
59054;SDS011;44845;51.444;7.460;2023-04-28T13:36:42;9.82;;;8.82;;
59054;SDS011;44845;51.444;7.460;2023-04-28T13:39:08;11.05;;;8.48;;
59054;SDS011;44845;51.444;7.460;2023-04-28T13:41:38;12.23;;;9.60;;
59054;SDS011;44845;51.444;7.460;2023-04-28T13:44:03;10.35;;;9.23;;
59054;SDS011;44845;51.444;7.460;2023-04-28T13:46:29;11.88;;;9.27;;
59054;SDS011;44845;51.444;7.460;2023-04-28T13:48:54;9.50;;;8.48;;
59054;SDS011;44845;51.444;7.460;2023-04-28T13:51:20;9.82;;;8.30;;
59054;SDS011;44845;51.444;7.460;2023-04-28T13:53:45;9.82;;;7.97;;
59054;SDS011;44845;51.444;7.460;2023-04-28T13:56:10;8.95;;;7.78;;
59054;SDS011;44845;51.444;7.460;2023-04-28T13:58:36;8.07;;;7.28;;
59054;SDS011;44845;51.444;7.460;2023-04-28T14:01:01;8.57;;;7.60;;
59054;SDS011;44845;51.444;7.460;2023-04-28T14:03:28;9.02;;;8.05;;
59054;SDS011;44845;51.444;7.460;2023-04-28T14:05:55;9.82;;;7.20;;
59054;SDS011;44845;51.444;7.460;2023-04-28T14:08:21;8.57;;;7.68;;
59054;SDS011;44845;51.444;7.460;2023-04-28T14:10:48;8.15;;;7.35;;
59054;SDS011;44845;51.444;7.460;2023-04-28T14:13:14;9.32;;;8.15;;
59054;SDS011;44845;51.444;7.460;2023-04-28T14:15:40;7.55;;;6.70;;
59054;SDS011;44845;51.444;7.460;2023-04-28T14:18:06;8.88;;;7.97;;
59054;SDS011;44845;51.444;7.460;2023-04-28T14:20:31;9.43;;;7.60;;
59054;SDS011;44845;51.444;7.460;2023-04-28T14:22:57;10.20;;;8.93;;
59054;SDS011;44845;51.444;7.460;2023-04-28T14:25:22;8.80;;;7.90;;
59054;SDS011;44845;51.444;7.460;2023-04-28T14:27:48;8.05;;;7.28;;
59054;SDS011;44845;51.444;7.460;2023-04-28T14:30:14;11.98;;;8.38;;
59054;SDS011;44845;51.444;7.460;2023-04-28T14:32:40;9.25;;;8.30;;
59054;SDS011;44845;51.444;7.460;2023-04-28T14:35:06;8.88;;;8.02;;
59054;SDS011;44845;51.444;7.460;2023-04-28T14:37:32;9.43;;;8.48;;
59054;SDS011;44845;51.444;7.460;2023-04-28T14:39:58;11.55;;;8.73;;
59054;SDS011;44845;51.444;7.460;2023-04-28T14:42:26;9.80;;;8.80;;
59054;SDS011;44845;51.444;7.460;2023-04-28T14:44:53;9.63;;;8.35;;
59054;SDS011;44845;51.444;7.460;2023-04-28T14:47:19;9.73;;;8.73;;
59054;SDS011;44845;51.444;7.460;2023-04-28T14:49:45;9.63;;;8.02;;
59054;SDS011;44845;51.444;7.460;2023-04-28T14:52:11;9.18;;;8.38;;
59054;SDS011;44845;51.444;7.460;2023-04-28T14:54:37;9.60;;;8.70;;
59054;SDS011;44845;51.444;7.460;2023-04-28T14:57:03;9.57;;;8.52;;
59054;SDS011;44845;51.444;7.460;2023-04-28T14:59:28;9.13;;;8.32;;
59054;SDS011;44845;51.444;7.460;2023-04-28T15:01:54;9.07;;;8.27;;
59054;SDS011;44845;51.444;7.460;2023-04-28T15:04:20;10.98;;;7.50;;